sensor_id;sensor_type;location;lat;lon;timestamp;temperature;humidity
78788;DHT22;68131;52.508;5.502;2023-09-30T00:02:13;15.10;71.80
78788;DHT22;68131;52.508;5.502;2023-09-30T00:04:54;15.10;71.70
78788;DHT22;68131;52.508;5.502;2023-09-30T00:07:24;15.10;71.70
78788;DHT22;68131;52.508;5.502;2023-09-30T00:09:53;15.10;71.70
78788;DHT22;68131;52.508;5.502;2023-09-30T00:12:25;15.10;71.70
78788;DHT22;68131;52.508;5.502;2023-09-30T00:14:54;15.10;71.70
78788;DHT22;68131;52.508;5.502;2023-09-30T00:17:23;15.10;71.70
78788;DHT22;68131;52.508;5.502;2023-09-30T00:19:55;15.10;71.70
78788;DHT22;68131;52.508;5.502;2023-09-30T00:22:27;15.10;71.70
78788;DHT22;68131;52.508;5.502;2023-09-30T00:25:05;15.10;71.70
78788;DHT22;68131;52.508;5.502;2023-09-30T00:27:38;15.10;71.70
78788;DHT22;68131;52.508;5.502;2023-09-30T00:30:09;15.10;71.70
78788;DHT22;68131;52.508;5.502;2023-09-30T00:32:40;15.10;71.70
78788;DHT22;68131;52.508;5.502;2023-09-30T00:35:15;15.10;71.70
78788;DHT22;68131;52.508;5.502;2023-09-30T00:37:51;15.10;71.70
78788;DHT22;68131;52.508;5.502;2023-09-30T00:40:25;15.10;71.80
78788;DHT22;68131;52.508;5.502;2023-09-30T00:43:05;15.10;71.70
78788;DHT22;68131;52.508;5.502;2023-09-30T00:45:44;15.10;71.80
78788;DHT22;68131;52.508;5.502;2023-09-30T00:48:13;15.10;71.80
78788;DHT22;68131;52.508;5.502;2023-09-30T00:50:42;15.10;71.80
78788;DHT22;68131;52.508;5.502;2023-09-30T00:53:12;15.10;71.80
78788;DHT22;68131;52.508;5.502;2023-09-30T00:55:42;15.00;71.80
78788;DHT22;68131;52.508;5.502;2023-09-30T00:58:14;15.00;71.80
78788;DHT22;68131;52.508;5.502;2023-09-30T01:00:47;15.00;71.90
78788;DHT22;68131;52.508;5.502;2023-09-30T01:03:16;14.90;71.90
78788;DHT22;68131;52.508;5.502;2023-09-30T01:05:47;14.90;71.90
78788;DHT22;68131;52.508;5.502;2023-09-30T01:08:16;14.90;71.90
78788;DHT22;68131;52.508;5.502;2023-09-30T01:10:47;14.90;71.90
78788;DHT22;68131;52.508;5.502;2023-09-30T01:13:19;14.90;71.90
78788;DHT22;68131;52.508;5.502;2023-09-30T01:15:49;14.80;71.90
78788;DHT22;68131;52.508;5.502;2023-09-30T01:18:18;14.80;71.90
78788;DHT22;68131;52.508;5.502;2023-09-30T01:20:48;14.80;72.00
78788;DHT22;68131;52.508;5.502;2023-09-30T01:23:27;14.80;71.90
78788;DHT22;68131;52.508;5.502;2023-09-30T01:26:04;14.80;71.90
78788;DHT22;68131;52.508;5.502;2023-09-30T01:29:00;14.80;71.90
78788;DHT22;68131;52.508;5.502;2023-09-30T01:31:40;14.80;71.80
78788;DHT22;68131;52.508;5.502;2023-09-30T01:34:14;14.70;71.90
78788;DHT22;68131;52.508;5.502;2023-09-30T01:36:50;14.70;71.90
78788;DHT22;68131;52.508;5.502;2023-09-30T01:39:28;14.70;71.90
78788;DHT22;68131;52.508;5.502;2023-09-30T01:42:01;14.70;72.00
78788;DHT22;68131;52.508;5.502;2023-09-30T01:44:33;14.70;71.90
78788;DHT22;68131;52.508;5.502;2023-09-30T01:47:02;14.60;72.00
78788;DHT22;68131;52.508;5.502;2023-09-30T01:49:32;14.60;72.00
78788;DHT22;68131;52.508;5.502;2023-09-30T01:52:09;14.60;72.00
78788;DHT22;68131;52.508;5.502;2023-09-30T01:54:42;14.60;72.00
78788;DHT22;68131;52.508;5.502;2023-09-30T01:57:11;14.60;72.00
78788;DHT22;68131;52.508;5.502;2023-09-30T01:59:47;14.60;72.00
78788;DHT22;68131;52.508;5.502;2023-09-30T02:02:18;14.60;72.00
78788;DHT22;68131;52.508;5.502;2023-09-30T02:04:51;14.60;72.00
78788;DHT22;68131;52.508;5.502;2023-09-30T02:07:24;14.60;72.00
78788;DHT22;68131;52.508;5.502;2023-09-30T02:10:00;14.60;72.10
78788;DHT22;68131;52.508;5.502;2023-09-30T02:12:36;14.60;72.10
78788;DHT22;68131;52.508;5.502;2023-09-30T02:15:10;14.60;72.10
78788;DHT22;68131;52.508;5.502;2023-09-30T02:17:40;14.60;72.10
78788;DHT22;68131;52.508;5.502;2023-09-30T02:20:14;14.60;72.20
78788;DHT22;68131;52.508;5.502;2023-09-30T02:22:57;14.60;72.10
78788;DHT22;68131;52.508;5.502;2023-09-30T02:25:40;14.60;72.10
78788;DHT22;68131;52.508;5.502;2023-09-30T02:28:10;14.50;72.10
78788;DHT22;68131;52.508;5.502;2023-09-30T02:30:45;14.50;72.20
78788;DHT22;68131;52.508;5.502;2023-09-30T02:33:18;14.50;72.10
78788;DHT22;68131;52.508;5.502;2023-09-30T02:35:49;14.50;72.10
78788;DHT22;68131;52.508;5.502;2023-09-30T02:38:19;14.50;72.20
78788;DHT22;68131;52.508;5.502;2023-09-30T02:41:06;14.50;72.20
78788;DHT22;68131;52.508;5.502;2023-09-30T02:43:47;14.50;72.20
78788;DHT22;68131;52.508;5.502;2023-09-30T02:46:18;14.50;72.30
78788;DHT22;68131;52.508;5.502;2023-09-30T02:48:47;14.50;72.20
78788;DHT22;68131;52.508;5.502;2023-09-30T02:51:18;14.50;72.30
78788;DHT22;68131;52.508;5.502;2023-09-30T02:53:50;14.40;72.20
78788;DHT22;68131;52.508;5.502;2023-09-30T02:56:25;14.40;72.30
78788;DHT22;68131;52.508;5.502;2023-09-30T02:58:56;14.40;72.30
78788;DHT22;68131;52.508;5.502;2023-09-30T03:01:37;14.40;72.30
78788;DHT22;68131;52.508;5.502;2023-09-30T03:04:08;14.40;72.40
78788;DHT22;68131;52.508;5.502;2023-09-30T03:06:41;14.40;72.40
78788;DHT22;68131;52.508;5.502;2023-09-30T03:09:16;14.40;72.30
78788;DHT22;68131;52.508;5.502;2023-09-30T03:11:53;14.40;72.30
78788;DHT22;68131;52.508;5.502;2023-09-30T03:14:59;14.40;72.40
78788;DHT22;68131;52.508;5.502;2023-09-30T03:17:30;14.40;72.40
78788;DHT22;68131;52.508;5.502;2023-09-30T03:20:07;14.40;72.40
78788;DHT22;68131;52.508;5.502;2023-09-30T03:22:39;14.30;72.30
78788;DHT22;68131;52.508;5.502;2023-09-30T03:25:12;14.40;72.30
78788;DHT22;68131;52.508;5.502;2023-09-30T03:27:54;14.30;72.30
78788;DHT22;68131;52.508;5.502;2023-09-30T03:30:26;14.30;72.30
78788;DHT22;68131;52.508;5.502;2023-09-30T03:33:00;14.30;72.40
78788;DHT22;68131;52.508;5.502;2023-09-30T03:35:35;14.30;72.40
78788;DHT22;68131;52.508;5.502;2023-09-30T03:38:15;14.30;72.40
78788;DHT22;68131;52.508;5.502;2023-09-30T03:40:51;14.30;72.40
78788;DHT22;68131;52.508;5.502;2023-09-30T03:43:25;14.40;72.40
78788;DHT22;68131;52.508;5.502;2023-09-30T03:45:59;14.40;72.40
78788;DHT22;68131;52.508;5.502;2023-09-30T03:48:46;14.40;72.30
78788;DHT22;68131;52.508;5.502;2023-09-30T03:51:22;14.40;72.40
78788;DHT22;68131;52.508;5.502;2023-09-30T03:53:58;14.40;72.40
78788;DHT22;68131;52.508;5.502;2023-09-30T03:56:36;14.40;72.50
78788;DHT22;68131;52.508;5.502;2023-09-30T03:59:11;14.50;72.40
78788;DHT22;68131;52.508;5.502;2023-09-30T04:01:55;14.40;72.40
78788;DHT22;68131;52.508;5.502;2023-09-30T04:04:29;14.50;72.50
78788;DHT22;68131;52.508;5.502;2023-09-30T04:07:08;14.40;72.50
78788;DHT22;68131;52.508;5.502;2023-09-30T04:09:41;14.40;72.50
78788;DHT22;68131;52.508;5.502;2023-09-30T04:12:14;14.50;72.60
78788;DHT22;68131;52.508;5.502;2023-09-30T04:17:20;14.50;72.60
78788;DHT22;68131;52.508;5.502;2023-09-30T04:19:51;14.50;72.60
78788;DHT22;68131;52.508;5.502;2023-09-30T04:22:25;14.50;72.60
78788;DHT22;68131;52.508;5.502;2023-09-30T04:24:57;14.50;72.70
78788;DHT22;68131;52.508;5.502;2023-09-30T04:27:26;14.50;72.70
78788;DHT22;68131;52.508;5.502;2023-09-30T04:30:11;14.50;72.80
78788;DHT22;68131;52.508;5.502;2023-09-30T04:33:00;14.50;72.80
78788;DHT22;68131;52.508;5.502;2023-09-30T04:35:32;14.50;72.80
78788;DHT22;68131;52.508;5.502;2023-09-30T04:38:08;14.50;72.70
78788;DHT22;68131;52.508;5.502;2023-09-30T04:40:42;14.50;72.80
78788;DHT22;68131;52.508;5.502;2023-09-30T04:43:16;14.40;72.80
78788;DHT22;68131;52.508;5.502;2023-09-30T04:45:48;14.40;72.70
78788;DHT22;68131;52.508;5.502;2023-09-30T04:48:19;14.40;72.80
78788;DHT22;68131;52.508;5.502;2023-09-30T04:50:49;14.40;72.90
78788;DHT22;68131;52.508;5.502;2023-09-30T04:53:19;14.40;72.90
78788;DHT22;68131;52.508;5.502;2023-09-30T04:55:49;14.30;73.10
78788;DHT22;68131;52.508;5.502;2023-09-30T04:58:21;14.30;73.00
78788;DHT22;68131;52.508;5.502;2023-09-30T05:00:52;14.40;73.10
78788;DHT22;68131;52.508;5.502;2023-09-30T05:03:22;14.30;73.00
78788;DHT22;68131;52.508;5.502;2023-09-30T05:05:52;14.30;73.00
78788;DHT22;68131;52.508;5.502;2023-09-30T05:08:23;14.30;73.00
78788;DHT22;68131;52.508;5.502;2023-09-30T05:10:55;14.40;73.00
78788;DHT22;68131;52.508;5.502;2023-09-30T05:13:30;14.30;73.10
78788;DHT22;68131;52.508;5.502;2023-09-30T05:16:05;14.30;73.10
78788;DHT22;68131;52.508;5.502;2023-09-30T05:18:36;14.30;73.00
78788;DHT22;68131;52.508;5.502;2023-09-30T05:21:10;14.30;73.10
78788;DHT22;68131;52.508;5.502;2023-09-30T05:23:41;14.30;73.10
78788;DHT22;68131;52.508;5.502;2023-09-30T05:26:30;14.30;73.10
78788;DHT22;68131;52.508;5.502;2023-09-30T05:29:06;14.30;73.20
78788;DHT22;68131;52.508;5.502;2023-09-30T05:31:43;14.30;73.20
78788;DHT22;68131;52.508;5.502;2023-09-30T05:34:14;14.30;73.20
78788;DHT22;68131;52.508;5.502;2023-09-30T05:36:51;14.30;73.20
78788;DHT22;68131;52.508;5.502;2023-09-30T05:39:25;14.30;73.30
78788;DHT22;68131;52.508;5.502;2023-09-30T05:42:16;14.40;73.40
78788;DHT22;68131;52.508;5.502;2023-09-30T05:44:55;14.40;73.40
78788;DHT22;68131;52.508;5.502;2023-09-30T05:47:29;14.50;73.30
78788;DHT22;68131;52.508;5.502;2023-09-30T05:50:11;14.50;73.40
78788;DHT22;68131;52.508;5.502;2023-09-30T05:52:50;14.50;73.40
78788;DHT22;68131;52.508;5.502;2023-09-30T05:55:23;14.60;73.40
78788;DHT22;68131;52.508;5.502;2023-09-30T05:58:04;14.60;73.50
78788;DHT22;68131;52.508;5.502;2023-09-30T06:00:46;14.60;73.30
78788;DHT22;68131;52.508;5.502;2023-09-30T06:03:23;14.70;73.40
78788;DHT22;68131;52.508;5.502;2023-09-30T06:05:59;14.70;73.30
78788;DHT22;68131;52.508;5.502;2023-09-30T06:08:32;14.70;73.40
78788;DHT22;68131;52.508;5.502;2023-09-30T06:11:03;14.70;73.40
78788;DHT22;68131;52.508;5.502;2023-09-30T06:13:37;14.80;73.40
78788;DHT22;68131;52.508;5.502;2023-09-30T06:16:13;14.80;73.40
78788;DHT22;68131;52.508;5.502;2023-09-30T06:18:46;14.80;73.40
78788;DHT22;68131;52.508;5.502;2023-09-30T06:21:20;14.90;73.40
78788;DHT22;68131;52.508;5.502;2023-09-30T06:23:53;14.90;73.40
78788;DHT22;68131;52.508;5.502;2023-09-30T06:26:28;14.90;73.40
78788;DHT22;68131;52.508;5.502;2023-09-30T06:29:00;14.90;73.50
78788;DHT22;68131;52.508;5.502;2023-09-30T06:31:37;14.90;73.50
78788;DHT22;68131;52.508;5.502;2023-09-30T06:34:14;14.90;73.40
78788;DHT22;68131;52.508;5.502;2023-09-30T06:36:46;14.90;73.40
78788;DHT22;68131;52.508;5.502;2023-09-30T06:39:22;14.90;73.50
78788;DHT22;68131;52.508;5.502;2023-09-30T06:41:55;15.00;73.50
78788;DHT22;68131;52.508;5.502;2023-09-30T06:44:37;15.00;73.60
78788;DHT22;68131;52.508;5.502;2023-09-30T06:47:15;15.00;73.60
78788;DHT22;68131;52.508;5.502;2023-09-30T06:49:50;15.10;73.50
78788;DHT22;68131;52.508;5.502;2023-09-30T06:52:29;15.10;73.40
78788;DHT22;68131;52.508;5.502;2023-09-30T06:54:59;15.20;73.40
78788;DHT22;68131;52.508;5.502;2023-09-30T06:57:32;15.30;73.40
78788;DHT22;68131;52.508;5.502;2023-09-30T07:00:04;15.40;73.30
78788;DHT22;68131;52.508;5.502;2023-09-30T07:02:49;15.50;73.40
78788;DHT22;68131;52.508;5.502;2023-09-30T07:05:27;15.70;73.20
78788;DHT22;68131;52.508;5.502;2023-09-30T07:08:03;15.80;73.10
78788;DHT22;68131;52.508;5.502;2023-09-30T07:10:38;15.80;73.10
78788;DHT22;68131;52.508;5.502;2023-09-30T07:13:18;15.80;73.10
78788;DHT22;68131;52.508;5.502;2023-09-30T07:15:47;15.80;73.20
78788;DHT22;68131;52.508;5.502;2023-09-30T07:18:17;15.90;73.40
78788;DHT22;68131;52.508;5.502;2023-09-30T07:20:49;16.10;73.40
78788;DHT22;68131;52.508;5.502;2023-09-30T07:23:21;16.40;73.30
78788;DHT22;68131;52.508;5.502;2023-09-30T07:26:01;16.60;73.00
78788;DHT22;68131;52.508;5.502;2023-09-30T07:28:35;16.90;72.80
78788;DHT22;68131;52.508;5.502;2023-09-30T07:31:11;17.10;72.60
78788;DHT22;68131;52.508;5.502;2023-09-30T07:33:47;17.30;72.40
78788;DHT22;68131;52.508;5.502;2023-09-30T07:36:21;17.50;72.20
78788;DHT22;68131;52.508;5.502;2023-09-30T07:38:51;17.70;72.10
78788;DHT22;68131;52.508;5.502;2023-09-30T07:41:39;17.90;71.90
78788;DHT22;68131;52.508;5.502;2023-09-30T07:44:15;18.10;71.60
78788;DHT22;68131;52.508;5.502;2023-09-30T07:46:45;18.30;71.50
78788;DHT22;68131;52.508;5.502;2023-09-30T07:49:27;18.40;71.20
78788;DHT22;68131;52.508;5.502;2023-09-30T07:52:07;18.60;71.20
78788;DHT22;68131;52.508;5.502;2023-09-30T07:54:41;18.70;71.00
78788;DHT22;68131;52.508;5.502;2023-09-30T07:57:12;18.90;71.00
78788;DHT22;68131;52.508;5.502;2023-09-30T07:59:41;19.00;70.80
78788;DHT22;68131;52.508;5.502;2023-09-30T08:02:12;19.20;70.70
78788;DHT22;68131;52.508;5.502;2023-09-30T08:04:42;19.30;70.50
78788;DHT22;68131;52.508;5.502;2023-09-30T08:07:14;19.40;70.00
78788;DHT22;68131;52.508;5.502;2023-09-30T08:09:43;19.50;69.50
78788;DHT22;68131;52.508;5.502;2023-09-30T08:12:15;19.60;69.30
78788;DHT22;68131;52.508;5.502;2023-09-30T08:14:50;19.70;69.30
78788;DHT22;68131;52.508;5.502;2023-09-30T08:17:32;19.80;69.10
78788;DHT22;68131;52.508;5.502;2023-09-30T08:20:05;20.00;69.10
78788;DHT22;68131;52.508;5.502;2023-09-30T08:22:37;20.10;68.70
78788;DHT22;68131;52.508;5.502;2023-09-30T08:25:10;20.20;68.50
78788;DHT22;68131;52.508;5.502;2023-09-30T08:27:39;20.40;68.40
78788;DHT22;68131;52.508;5.502;2023-09-30T08:30:09;20.50;68.40
78788;DHT22;68131;52.508;5.502;2023-09-30T08:32:39;20.60;68.10
78788;DHT22;68131;52.508;5.502;2023-09-30T08:35:09;20.70;68.20
78788;DHT22;68131;52.508;5.502;2023-09-30T08:37:43;20.90;68.00
78788;DHT22;68131;52.508;5.502;2023-09-30T08:40:13;21.00;68.10
78788;DHT22;68131;52.508;5.502;2023-09-30T08:42:45;21.10;67.90
78788;DHT22;68131;52.508;5.502;2023-09-30T08:45:17;21.20;67.60
78788;DHT22;68131;52.508;5.502;2023-09-30T08:47:48;21.30;67.40
78788;DHT22;68131;52.508;5.502;2023-09-30T08:50:21;21.40;67.20
78788;DHT22;68131;52.508;5.502;2023-09-30T08:52:53;21.50;66.90
78788;DHT22;68131;52.508;5.502;2023-09-30T08:55:24;21.50;66.90
78788;DHT22;68131;52.508;5.502;2023-09-30T08:57:56;21.60;65.40
78788;DHT22;68131;52.508;5.502;2023-09-30T09:00:26;21.50;65.30
78788;DHT22;68131;52.508;5.502;2023-09-30T09:02:55;21.50;65.40
78788;DHT22;68131;52.508;5.502;2023-09-30T09:05:25;21.40;65.40
78788;DHT22;68131;52.508;5.502;2023-09-30T09:07:57;21.40;65.20
78788;DHT22;68131;52.508;5.502;2023-09-30T09:10:26;21.40;65.40
78788;DHT22;68131;52.508;5.502;2023-09-30T09:12:56;21.30;65.40
78788;DHT22;68131;52.508;5.502;2023-09-30T09:15:27;21.30;65.70
78788;DHT22;68131;52.508;5.502;2023-09-30T09:17:57;21.30;65.90
78788;DHT22;68131;52.508;5.502;2023-09-30T09:20:26;21.40;66.20
78788;DHT22;68131;52.508;5.502;2023-09-30T09:22:58;21.50;66.20
78788;DHT22;68131;52.508;5.502;2023-09-30T09:25:28;21.60;65.80
78788;DHT22;68131;52.508;5.502;2023-09-30T09:27:57;21.70;65.70
78788;DHT22;68131;52.508;5.502;2023-09-30T09:30:33;21.70;65.60
78788;DHT22;68131;52.508;5.502;2023-09-30T09:33:15;21.80;65.60
78788;DHT22;68131;52.508;5.502;2023-09-30T09:35:54;21.90;65.50
78788;DHT22;68131;52.508;5.502;2023-09-30T09:38:44;22.00;65.40
78788;DHT22;68131;52.508;5.502;2023-09-30T09:41:16;22.00;65.10
78788;DHT22;68131;52.508;5.502;2023-09-30T09:44:14;22.10;65.30
78788;DHT22;68131;52.508;5.502;2023-09-30T09:46:47;22.10;64.90
78788;DHT22;68131;52.508;5.502;2023-09-30T09:49:18;22.10;64.50
78788;DHT22;68131;52.508;5.502;2023-09-30T09:51:48;22.00;63.90
78788;DHT22;68131;52.508;5.502;2023-09-30T09:54:23;21.90;63.90
78788;DHT22;68131;52.508;5.502;2023-09-30T09:56:54;21.70;64.40
78788;DHT22;68131;52.508;5.502;2023-09-30T09:59:36;21.70;64.80
78788;DHT22;68131;52.508;5.502;2023-09-30T10:02:15;21.80;64.80
78788;DHT22;68131;52.508;5.502;2023-09-30T10:04:57;21.80;64.70
78788;DHT22;68131;52.508;5.502;2023-09-30T10:07:33;21.90;64.30
78788;DHT22;68131;52.508;5.502;2023-09-30T10:10:11;22.10;64.20
78788;DHT22;68131;52.508;5.502;2023-09-30T10:12:45;22.10;63.80
78788;DHT22;68131;52.508;5.502;2023-09-30T10:15:38;22.20;63.50
78788;DHT22;68131;52.508;5.502;2023-09-30T10:18:12;22.20;63.50
78788;DHT22;68131;52.508;5.502;2023-09-30T10:20:47;22.30;63.40
78788;DHT22;68131;52.508;5.502;2023-09-30T10:23:27;22.20;63.10
78788;DHT22;68131;52.508;5.502;2023-09-30T10:26:20;22.00;63.60
78788;DHT22;68131;52.508;5.502;2023-09-30T10:28:49;21.90;63.80
78788;DHT22;68131;52.508;5.502;2023-09-30T10:31:39;21.70;64.10
78788;DHT22;68131;52.508;5.502;2023-09-30T10:34:25;21.70;64.40
78788;DHT22;68131;52.508;5.502;2023-09-30T10:37:20;21.50;64.40
78788;DHT22;68131;52.508;5.502;2023-09-30T10:39:56;21.40;64.50
78788;DHT22;68131;52.508;5.502;2023-09-30T10:42:47;21.30;64.40
78788;DHT22;68131;52.508;5.502;2023-09-30T10:45:45;21.30;64.40
78788;DHT22;68131;52.508;5.502;2023-09-30T10:48:37;21.20;64.40
78788;DHT22;68131;52.508;5.502;2023-09-30T10:51:19;21.00;64.50
78788;DHT22;68131;52.508;5.502;2023-09-30T10:53:54;20.90;64.50
78788;DHT22;68131;52.508;5.502;2023-09-30T10:56:33;20.80;64.50
78788;DHT22;68131;52.508;5.502;2023-09-30T10:59:08;20.90;64.20
78788;DHT22;68131;52.508;5.502;2023-09-30T11:01:40;21.00;64.10
78788;DHT22;68131;52.508;5.502;2023-09-30T11:04:10;21.20;63.90
78788;DHT22;68131;52.508;5.502;2023-09-30T11:06:40;21.30;63.60
78788;DHT22;68131;52.508;5.502;2023-09-30T11:09:09;21.40;63.40
78788;DHT22;68131;52.508;5.502;2023-09-30T11:11:43;21.50;63.10
78788;DHT22;68131;52.508;5.502;2023-09-30T11:14:23;21.60;62.70
78788;DHT22;68131;52.508;5.502;2023-09-30T11:16:55;21.60;62.70
78788;DHT22;68131;52.508;5.502;2023-09-30T11:19:25;21.70;62.40
78788;DHT22;68131;52.508;5.502;2023-09-30T11:21:56;21.70;62.10
78788;DHT22;68131;52.508;5.502;2023-09-30T11:24:27;21.80;61.30
78788;DHT22;68131;52.508;5.502;2023-09-30T11:26:57;21.70;61.40
78788;DHT22;68131;52.508;5.502;2023-09-30T11:29:31;21.60;61.10
78788;DHT22;68131;52.508;5.502;2023-09-30T11:32:00;21.50;61.20
78788;DHT22;68131;52.508;5.502;2023-09-30T11:34:36;21.50;61.30
78788;DHT22;68131;52.508;5.502;2023-09-30T11:37:07;21.40;60.60
78788;DHT22;68131;52.508;5.502;2023-09-30T11:39:38;21.30;60.10
78788;DHT22;68131;52.508;5.502;2023-09-30T11:42:15;21.20;60.20
78788;DHT22;68131;52.508;5.502;2023-09-30T11:44:48;21.30;60.40
78788;DHT22;68131;52.508;5.502;2023-09-30T11:47:28;21.20;60.30
78788;DHT22;68131;52.508;5.502;2023-09-30T11:50:00;21.20;60.50
78788;DHT22;68131;52.508;5.502;2023-09-30T11:52:31;21.20;60.70
78788;DHT22;68131;52.508;5.502;2023-09-30T11:55:05;21.40;60.80
78788;DHT22;68131;52.508;5.502;2023-09-30T11:57:35;21.50;60.80
78788;DHT22;68131;52.508;5.502;2023-09-30T12:00:08;21.50;60.00
78788;DHT22;68131;52.508;5.502;2023-09-30T12:02:42;21.60;60.20
78788;DHT22;68131;52.508;5.502;2023-09-30T12:05:11;21.60;60.50
78788;DHT22;68131;52.508;5.502;2023-09-30T12:07:42;21.70;60.50
78788;DHT22;68131;52.508;5.502;2023-09-30T12:10:14;21.70;60.50
78788;DHT22;68131;52.508;5.502;2023-09-30T12:12:44;21.80;60.60
78788;DHT22;68131;52.508;5.502;2023-09-30T12:15:16;21.80;60.20
78788;DHT22;68131;52.508;5.502;2023-09-30T12:17:48;21.80;59.60
78788;DHT22;68131;52.508;5.502;2023-09-30T12:20:17;21.90;59.80
78788;DHT22;68131;52.508;5.502;2023-09-30T12:22:49;21.90;59.10
78788;DHT22;68131;52.508;5.502;2023-09-30T12:25:20;21.90;58.60
78788;DHT22;68131;52.508;5.502;2023-09-30T12:27:52;22.00;58.60
78788;DHT22;68131;52.508;5.502;2023-09-30T12:30:27;22.00;58.70
78788;DHT22;68131;52.508;5.502;2023-09-30T12:33:05;21.90;58.40
78788;DHT22;68131;52.508;5.502;2023-09-30T12:35:41;21.90;58.60
78788;DHT22;68131;52.508;5.502;2023-09-30T12:38:35;21.80;58.00
78788;DHT22;68131;52.508;5.502;2023-09-30T12:41:09;21.80;58.30
78788;DHT22;68131;52.508;5.502;2023-09-30T12:43:47;21.80;58.70
78788;DHT22;68131;52.508;5.502;2023-09-30T12:46:24;21.70;58.60
78788;DHT22;68131;52.508;5.502;2023-09-30T12:49:04;21.70;58.80
78788;DHT22;68131;52.508;5.502;2023-09-30T12:51:36;21.70;58.80
78788;DHT22;68131;52.508;5.502;2023-09-30T12:54:10;21.60;59.10
78788;DHT22;68131;52.508;5.502;2023-09-30T12:56:46;21.60;59.10
78788;DHT22;68131;52.508;5.502;2023-09-30T12:59:17;21.50;59.40
78788;DHT22;68131;52.508;5.502;2023-09-30T13:01:53;21.50;59.40
78788;DHT22;68131;52.508;5.502;2023-09-30T13:04:24;21.40;59.50
78788;DHT22;68131;52.508;5.502;2023-09-30T13:07:00;21.40;59.50
78788;DHT22;68131;52.508;5.502;2023-09-30T13:09:30;21.40;59.50
78788;DHT22;68131;52.508;5.502;2023-09-30T13:12:01;21.40;59.60
78788;DHT22;68131;52.508;5.502;2023-09-30T13:14:39;21.30;59.40
78788;DHT22;68131;52.508;5.502;2023-09-30T13:17:16;21.30;59.30
78788;DHT22;68131;52.508;5.502;2023-09-30T13:19:49;21.20;59.50
78788;DHT22;68131;52.508;5.502;2023-09-30T13:22:19;21.10;59.60
78788;DHT22;68131;52.508;5.502;2023-09-30T13:24:51;21.10;59.70
78788;DHT22;68131;52.508;5.502;2023-09-30T13:27:22;21.10;59.70
78788;DHT22;68131;52.508;5.502;2023-09-30T13:29:54;21.10;59.60
78788;DHT22;68131;52.508;5.502;2023-09-30T13:32:32;21.00;59.20
78788;DHT22;68131;52.508;5.502;2023-09-30T13:35:05;21.00;59.30
78788;DHT22;68131;52.508;5.502;2023-09-30T13:37:36;21.00;59.00
78788;DHT22;68131;52.508;5.502;2023-09-30T13:40:11;20.90;58.90
78788;DHT22;68131;52.508;5.502;2023-09-30T13:42:44;20.90;59.10
78788;DHT22;68131;52.508;5.502;2023-09-30T13:45:16;20.90;59.10
78788;DHT22;68131;52.508;5.502;2023-09-30T13:47:52;20.80;58.90
78788;DHT22;68131;52.508;5.502;2023-09-30T13:50:22;20.80;59.20
78788;DHT22;68131;52.508;5.502;2023-09-30T13:52:52;20.70;59.40
78788;DHT22;68131;52.508;5.502;2023-09-30T13:55:21;20.70;59.60
78788;DHT22;68131;52.508;5.502;2023-09-30T13:57:52;20.70;59.20
78788;DHT22;68131;52.508;5.502;2023-09-30T14:00:23;20.60;59.40
78788;DHT22;68131;52.508;5.502;2023-09-30T14:02:59;20.60;59.20
78788;DHT22;68131;52.508;5.502;2023-09-30T14:05:33;20.60;59.40
78788;DHT22;68131;52.508;5.502;2023-09-30T14:08:10;20.50;59.60
78788;DHT22;68131;52.508;5.502;2023-09-30T14:10:42;20.50;59.70
78788;DHT22;68131;52.508;5.502;2023-09-30T14:13:14;20.40;59.90
78788;DHT22;68131;52.508;5.502;2023-09-30T14:15:46;20.40;59.90
78788;DHT22;68131;52.508;5.502;2023-09-30T14:18:21;20.40;60.10
78788;DHT22;68131;52.508;5.502;2023-09-30T14:20:54;20.40;60.20
78788;DHT22;68131;52.508;5.502;2023-09-30T14:23:23;20.40;60.40
78788;DHT22;68131;52.508;5.502;2023-09-30T14:25:58;20.40;60.50
78788;DHT22;68131;52.508;5.502;2023-09-30T14:28:32;20.40;60.60
78788;DHT22;68131;52.508;5.502;2023-09-30T14:31:03;20.40;60.70
78788;DHT22;68131;52.508;5.502;2023-09-30T14:33:38;20.50;60.80
78788;DHT22;68131;52.508;5.502;2023-09-30T14:36:07;20.50;60.80
78788;DHT22;68131;52.508;5.502;2023-09-30T14:38:37;20.60;60.90
78788;DHT22;68131;52.508;5.502;2023-09-30T14:41:07;20.60;60.90
78788;DHT22;68131;52.508;5.502;2023-09-30T14:43:36;20.60;61.00
78788;DHT22;68131;52.508;5.502;2023-09-30T14:46:06;20.60;61.10
78788;DHT22;68131;52.508;5.502;2023-09-30T14:48:38;20.70;61.10
78788;DHT22;68131;52.508;5.502;2023-09-30T14:51:10;20.70;61.20
78788;DHT22;68131;52.508;5.502;2023-09-30T14:53:39;20.70;61.30
78788;DHT22;68131;52.508;5.502;2023-09-30T14:56:15;20.80;61.40
78788;DHT22;68131;52.508;5.502;2023-09-30T14:58:45;20.80;61.40
78788;DHT22;68131;52.508;5.502;2023-09-30T15:01:15;20.90;61.20
78788;DHT22;68131;52.508;5.502;2023-09-30T15:03:48;20.90;61.20
78788;DHT22;68131;52.508;5.502;2023-09-30T15:06:19;20.90;61.20
78788;DHT22;68131;52.508;5.502;2023-09-30T15:08:50;20.90;61.00
78788;DHT22;68131;52.508;5.502;2023-09-30T15:11:20;20.80;61.10
78788;DHT22;68131;52.508;5.502;2023-09-30T15:13:51;20.80;61.20
78788;DHT22;68131;52.508;5.502;2023-09-30T15:16:23;20.80;61.20
78788;DHT22;68131;52.508;5.502;2023-09-30T15:18:56;20.80;61.30
78788;DHT22;68131;52.508;5.502;2023-09-30T15:21:27;20.70;61.40
78788;DHT22;68131;52.508;5.502;2023-09-30T15:24:04;20.70;61.40
78788;DHT22;68131;52.508;5.502;2023-09-30T15:26:43;20.70;61.60
78788;DHT22;68131;52.508;5.502;2023-09-30T15:29:16;20.60;61.60
78788;DHT22;68131;52.508;5.502;2023-09-30T15:31:47;20.60;61.70
78788;DHT22;68131;52.508;5.502;2023-09-30T15:34:19;20.60;61.90
78788;DHT22;68131;52.508;5.502;2023-09-30T15:36:51;20.60;62.00
78788;DHT22;68131;52.508;5.502;2023-09-30T15:39:32;20.60;62.10
78788;DHT22;68131;52.508;5.502;2023-09-30T15:42:08;20.50;62.00
78788;DHT22;68131;52.508;5.502;2023-09-30T15:44:41;20.50;62.10
78788;DHT22;68131;52.508;5.502;2023-09-30T15:47:13;20.50;62.10
78788;DHT22;68131;52.508;5.502;2023-09-30T15:49:55;20.50;62.20
78788;DHT22;68131;52.508;5.502;2023-09-30T15:52:30;20.50;62.30
78788;DHT22;68131;52.508;5.502;2023-09-30T15:55:10;20.50;62.40
78788;DHT22;68131;52.508;5.502;2023-09-30T15:57:40;20.40;62.40
78788;DHT22;68131;52.508;5.502;2023-09-30T16:00:12;20.40;62.50
78788;DHT22;68131;52.508;5.502;2023-09-30T16:02:42;20.40;62.50
78788;DHT22;68131;52.508;5.502;2023-09-30T16:05:19;20.40;62.50
78788;DHT22;68131;52.508;5.502;2023-09-30T16:07:49;20.30;62.50
78788;DHT22;68131;52.508;5.502;2023-09-30T16:10:18;20.30;62.50
78788;DHT22;68131;52.508;5.502;2023-09-30T16:12:50;20.30;62.40
78788;DHT22;68131;52.508;5.502;2023-09-30T16:15:19;20.30;62.50
78788;DHT22;68131;52.508;5.502;2023-09-30T16:17:51;20.20;62.60